Grand Forks International Airport
KGFK : rendu visible

Aérodrome :











RETROUVEZ-NOUS SUR...

 
LOGIN :

S'inscrire | Disclaimer

   EN    FR    IT 

 









Légende :    VFR   VFR Marginal   IFR   IFR Intensif   IFR Très Intensif
Visi : 
Plafond : 
>= 8 km
>= 3000ft
5 à 8 km
1000 à 3000 ft
1500m à 5 km
500 à 1000 ft
800 à 1500m
200 à 500 ft
< 800m
< 200 ft
Symboles :   Orages  Brouillard  Fortes neiges  Fortes précipitations  Vent > 20 kt






- Altitude de l'aérodrome : 845 ft
- Code IATA : GFK


KGFK - Grand Forks International

DERNIER METAR :
  • 191053Z 24007KT 10SM CLR 05/02 A2952 RMK AO2 SLP001 T00500017

METARs EXPIRÉS :
  • 190953Z AUTO 24006KT 10SM CLR 06/02 A2952 RMK AO2 SLP000 T00560022
  • 190853Z AUTO 23009KT 10SM CLR 07/03 A2951 RMK AO2 SLP995 T00670028 53012

TAF KGFK
Valide du 19 à 12h jusqu'au 20 à 12h UTC


191124Z 1912/2012 26007KT P6SM SKC
FM192000 23010G15KT P6SM FEW250
FM200500 VRB03KT P6SM SCT250



MET'MAP, la Météo Aéronautique d'un coup d'oeil ! - Copyright ORBIFLY Décembre 2007 - Disclaimer

ORBIFLY MET'MAP TEAM :

Programmation & Développement : Alexandra Zaïnal
Conception & Développement : Baudouin d'Aumeries
Co-Programmation & Développement : Marc-Olivier Méhu
Soutien technique & logistique : Manuel Goepfert

Contact : metmap@orbifly.com




SOURCES & CREDITS :

   NOAA       Earth
Advisory